Time;durP1;ratioP1;P1;durP2;ratioP2;P2;SDS_P1;SDS_P2;PMS_P1;PMS_P2;Temp;Humidity;BMP_temperature;BMP_pressure;BME280_temperature;BME280_humidity;BME280_pressure;Samples;Min_cycle;Max_cycle;Signal;HPM_P1;HPM_P2
2021/12/12 00:00:37;;;;;;;5.65;4.70;;;5.60;99.90;;;;;;6069763;23;20026;-67
2021/12/12 00:03:15;;;;;;;5.80;4.70;;;5.70;99.90;;;;;;6093757;23;20094;-73
2021/12/12 00:05:53;;;;;;;6.45;4.90;;;5.70;99.90;;;;;;6094336;23;20014;-72
2021/12/12 00:08:26;;;;;;;6.20;4.55;;;5.70;99.90;;;;;;6093768;23;20144;-71
2021/12/12 00:11:00;;;;;;;5.07;4.38;;;5.70;99.90;;;;;;6094161;23;20011;-70
2021/12/12 00:13:44;;;;;;;4.80;4.30;;;5.70;99.90;;;;;;6093816;23;20044;-67
2021/12/12 00:16:13;;;;;;;5.18;4.28;;;5.70;99.90;;;;;;6071069;23;20089;-67
2021/12/12 00:18:41;;;;;;;4.43;4.03;;;5.70;99.90;;;;;;6094608;23;20086;-74
2021/12/12 00:21:12;;;;;;;6.00;4.50;;;5.70;99.90;;;;;;6094782;23;20010;-75
2021/12/12 00:23:43;;;;;;;4.55;4.00;;;5.70;99.90;;;;;;6094797;23;20018;-77
2021/12/12 00:26:11;;;;;;;7.45;5.85;;;5.70;99.90;;;;;;6095625;23;20021;-74
2021/12/12 00:28:40;;;;;;;4.75;4.10;;;5.80;99.90;;;;;;6094930;23;20019;-68
2021/12/12 00:31:11;;;;;;;4.78;4.03;;;5.70;99.90;;;;;;6095503;23;20365;-67
2021/12/12 00:33:42;;;;;;;4.50;4.10;;;5.60;99.90;;;;;;6094615;23;20089;-72
2021/12/12 00:36:14;;;;;;;5.15;4.10;;;5.60;99.90;;;;;;6095104;23;20021;-72
2021/12/12 00:38:41;;;;;;;;;;;5.50;99.90;;;;;;6095607;23;20101;-76
2021/12/12 00:41:12;;;;;;;4.45;3.67;;;5.50;99.90;;;;;;6096265;23;19913;-74
2021/12/12 00:43:41;;;;;;;;;;;5.50;99.90;;;;;;6095213;23;20014;-71
2021/12/12 00:46:10;;;;;;;4.03;3.70;;;5.50;99.90;;;;;;6095800;23;19936;-68
2021/12/12 00:48:41;;;;;;;3.78;3.47;;;5.40;99.90;;;;;;6094938;23;20093;-68
2021/12/12 00:51:09;;;;;;;;;;;5.40;99.90;;;;;;6095531;23;20362;-74
2021/12/12 00:53:40;;;;;;;4.10;3.75;;;5.40;99.90;;;;;;6094886;23;19917;-66
2021/12/12 00:56:09;;;;;;;4.30;3.90;;;5.40;99.90;;;;;;6094979;23;20018;-67
2021/12/12 00:58:37;;;;;;;4.10;3.70;;;5.40;99.90;;;;;;6095022;23;20093;-69
2021/12/12 01:01:16;;;;;;;3.90;3.60;;;5.40;99.90;;;;;;6094648;23;20014;-66
2021/12/12 01:04:07;;;;;;;4.30;3.88;;;5.40;99.90;;;;;;6095055;23;20018;-69
2021/12/12 01:06:34;;;;;;;;;;;5.30;99.90;;;;;;6095186;23;20109;-68
2021/12/12 01:09:07;;;;;;;4.20;3.80;;;5.30;99.90;;;;;;6095201;23;19932;-69
2021/12/12 01:11:40;;;;;;;4.05;3.65;;;5.30;99.90;;;;;;6094770;23;20049;-68
2021/12/12 01:14:11;;;;;;;4.10;3.70;;;5.30;99.90;;;;;;6097138;23;20014;-69
2021/12/12 01:17:03;;;;;;;3.90;3.60;;;5.30;99.90;;;;;;6097134;23;20377;-77
2021/12/12 01:19:40;;;;;;;3.90;3.60;;;5.30;99.90;;;;;;6096934;23;20381;-74
2021/12/12 01:22:15;;;;;;;3.92;3.63;;;5.30;99.90;;;;;;6096941;23;20041;-70
2021/12/12 01:24:46;;;;;;;4.22;3.83;;;5.30;99.90;;;;;;6071632;23;20057;-73
2021/12/12 01:27:14;;;;;;;3.90;3.60;;;5.40;99.90;;;;;;6097489;23;20022;-69
2021/12/12 01:29:42;;;;;;;4.10;3.70;;;5.50;99.90;;;;;;6096395;23;20028;-70
2021/12/12 01:32:21;;;;;;;6.60;5.05;;;5.50;99.90;;;;;;6096963;23;20082;-79
2021/12/12 01:34:51;;;;;;;13.60;8.70;;;5.80;99.90;;;;;;6096349;23;20021;-76
2021/12/12 01:39:57;;;;;;;12.55;8.23;;;5.80;99.90;;;;;;6097021;23;20034;-71
2021/12/12 01:43:09;;;;;;;11.27;8.40;;;6.00;99.90;;;;;;6095213;23;20053;-76
2021/12/12 01:45:45;;;;;;;3.95;3.60;;;5.90;99.90;;;;;;6084877;23;20492;-81
2021/12/12 01:48:21;;;;;;;3.72;3.42;;;5.70;99.90;;;;;;6096522;23;20018;-74
2021/12/12 01:50:53;;;;;;;3.80;3.47;;;5.60;99.90;;;;;;6096883;23;20024;-66
2021/12/12 01:53:23;;;;;;;3.72;3.42;;;5.60;99.90;;;;;;6097036;23;20010;-77
2021/12/12 01:56:04;;;;;;;3.95;3.60;;;5.50;99.90;;;;;;6097496;23;20014;-74
2021/12/12 01:58:35;;;;;;;3.80;3.50;;;5.60;99.90;;;;;;6071329;23;20018;-70
2021/12/12 02:01:13;;;;;;;3.65;3.35;;;5.60;99.90;;;;;;6096842;23;20019;-82
2021/12/12 02:03:47;;;;;;;3.50;3.20;;;5.60;99.90;;;;;;6097058;23;20022;-83
2021/12/12 02:06:17;;;;;;;3.90;3.60;;;5.60;99.90;;;;;;6097010;23;20376;-75
2021/12/12 02:08:49;;;;;;;3.70;3.40;;;5.50;99.90;;;;;;6096785;23;20049;-78
2021/12/12 02:11:22;;;;;;;4.00;3.60;;;5.50;99.90;;;;;;6096141;23;20065;-81
2021/12/12 02:13:53;;;;;;;3.90;3.55;;;5.50;99.90;;;;;;6096839;23;20089;-69
2021/12/12 02:16:24;;;;;;;3.78;3.40;;;5.60;99.90;;;;;;6096516;23;20021;-68
2021/12/12 02:18:55;;;;;;;3.83;3.53;;;5.50;99.90;;;;;;6071305;23;20132;-72
2021/12/12 02:21:33;;;;;;;3.80;3.50;;;5.50;99.90;;;;;;6096778;23;20413;-70
2021/12/12 02:35:31;;;;;;;3.72;3.42;;;5.40;99.90;;;;;;6090194;23;20038;-83
2021/12/12 02:37:59;;;;;;;3.80;3.50;;;5.30;99.90;;;;;;6096855;23;20089;-78
2021/12/12 02:40:32;;;;;;;3.67;3.38;;;5.30;99.90;;;;;;6097582;23;20573;-71
2021/12/12 02:43:00;;;;;;;3.80;3.47;;;5.30;99.90;;;;;;6095826;23;20082;-67
2021/12/12 02:45:32;;;;;;;3.80;3.50;;;5.30;99.90;;;;;;6095965;23;20030;-68
2021/12/12 02:48:04;;;;;;;3.63;3.33;;;5.30;99.90;;;;;;6096095;23;20045;-72
2021/12/12 02:50:37;;;;;;;3.60;3.30;;;5.30;99.90;;;;;;6096061;23;20011;-73
2021/12/12 02:53:28;;;;;;;3.92;3.50;;;5.30;99.90;;;;;;6096045;23;20087;-78
2021/12/12 02:55:59;;;;;;;3.92;3.63;;;5.30;99.90;;;;;;6095905;23;20049;-71
2021/12/12 02:58:28;;;;;;;3.70;3.40;;;5.30;99.90;;;;;;6096468;23;20416;-68
2021/12/12 03:01:07;;;;;;;3.60;3.30;;;5.30;99.90;;;;;;6096044;23;20352;-73
2021/12/12 03:03:37;;;;;;;4.27;3.60;;;5.30;99.90;;;;;;6095864;23;20373;-73
2021/12/12 03:06:07;;;;;;;4.13;3.35;;;5.20;99.90;;;;;;6095996;23;20245;-70
2021/12/12 03:08:40;;;;;;;4.25;3.70;;;5.30;99.90;;;;;;6095666;23;20389;-69
2021/12/12 03:11:09;;;;;;;3.70;3.40;;;5.30;99.90;;;;;;6095377;23;20020;-69
2021/12/12 03:13:37;;;;;;;3.97;3.58;;;5.30;99.90;;;;;;6095544;23;20019;-75
2021/12/12 03:16:07;;;;;;;3.75;3.45;;;5.30;99.90;;;;;;6095744;23;20089;-64
2021/12/12 03:18:41;;;;;;;3.70;3.40;;;5.30;99.90;;;;;;6096104;23;20014;-77
2021/12/12 03:21:30;;;;;;;3.40;3.10;;;5.20;99.90;;;;;;6095481;23;20385;-73
2021/12/12 03:24:09;;;;;;;3.60;3.30;;;5.20;99.90;;;;;;6095850;23;20018;-73
2021/12/12 03:26:37;;;;;;;3.60;3.30;;;5.20;99.90;;;;;;6095452;23;20030;-68
2021/12/12 03:29:07;;;;;;;3.60;3.30;;;5.20;99.90;;;;;;6095795;23;20014;-69
2021/12/12 03:31:44;;;;;;;4.22;3.83;;;5.20;99.90;;;;;;6095225;23;20366;-69
2021/12/12 03:34:17;;;;;;;3.80;3.50;;;5.20;99.90;;;;;;6095399;23;20333;-70
2021/12/12 03:36:45;;;;;;;3.80;3.50;;;5.30;99.90;;;;;;6095318;23;20340;-67
2021/12/12 03:39:18;;;;;;;3.92;3.30;;;5.30;99.90;;;;;;6095771;23;20086;-68
2021/12/12 03:41:46;;;;;;;3.60;3.30;;;5.30;99.90;;;;;;6095169;23;20062;-74
2021/12/12 03:44:18;;;;;;;3.70;3.40;;;5.30;99.90;;;;;;6095240;23;20024;-69
2021/12/12 03:46:51;;;;;;;3.80;3.50;;;5.30;99.90;;;;;;6095073;23;20015;-70
2021/12/12 03:49:20;;;;;;;3.55;3.25;;;5.30;99.90;;;;;;6095712;23;20077;-70
2021/12/12 03:51:48;;;;;;;3.97;3.60;;;5.30;99.90;;;;;;6095127;23;20036;-68
2021/12/12 03:54:17;;;;;;;3.80;3.50;;;5.30;99.90;;;;;;6095609;23;20100;-67
2021/12/12 03:56:45;;;;;;;3.70;3.40;;;5.30;99.90;;;;;;6095090;23;20068;-66
2021/12/12 03:59:14;;;;;;;3.70;3.40;;;5.30;99.90;;;;;;6095393;23;20025;-67
2021/12/12 04:01:51;;;;;;;3.60;3.30;;;5.30;99.90;;;;;;6094945;23;20034;-72
2021/12/12 04:04:40;;;;;;;3.70;3.40;;;5.30;99.90;;;;;;6095156;23;20376;-70
2021/12/12 04:07:18;;;;;;;3.90;3.60;;;5.40;99.90;;;;;;6095001;23;20368;-76
2021/12/12 04:09:46;;;;;;;3.60;3.30;;;5.40;99.90;;;;;;6064803;23;20033;-68
2021/12/12 04:12:16;;;;;;;3.63;3.33;;;5.50;99.90;;;;;;6066287;23;20094;-70
2021/12/12 04:14:46;;;;;;;3.88;3.50;;;5.60;99.90;;;;;;6064708;23;20086;-73
2021/12/12 04:17:16;;;;;;;4.22;3.83;;;5.60;99.90;;;;;;6066576;23;20378;-80
2021/12/12 04:19:48;;;;;;;4.18;3.78;;;5.70;99.90;;;;;;6066220;23;20034;-71
2021/12/12 04:22:16;;;;;;;4.43;3.85;;;5.70;99.90;;;;;;6066641;23;20025;-81
2021/12/12 04:24:46;;;;;;;4.72;3.80;;;5.70;99.90;;;;;;6066717;23;20081;-81
2021/12/12 04:27:16;;;;;;;4.22;3.50;;;5.70;99.90;;;;;;6066458;23;20021;-73
2021/12/12 04:29:47;;;;;;;3.90;3.58;;;5.60;99.90;;;;;;6065268;23;20496;-68
2021/12/12 04:32:18;;;;;;;4.05;3.65;;;5.60;99.90;;;;;;6066447;23;20037;-67
2021/12/12 04:35:05;;;;;;;3.70;3.40;;;5.40;99.90;;;;;;6066174;23;20015;-68
2021/12/12 04:37:36;;;;;;;4.40;3.60;;;5.50;99.90;;;;;;6066470;23;20030;-69
2021/12/12 04:40:06;;;;;;;4.95;3.50;;;5.40;99.90;;;;;;6066628;23;20022;-77
2021/12/12 04:42:35;;;;;;;3.90;3.50;;;5.40;99.90;;;;;;6066371;23;20114;-76
2021/12/12 04:45:18;;;;;;;3.80;3.50;;;5.50;99.90;;;;;;6066789;23;20018;-68
2021/12/12 04:50:58;;;;;;;3.90;3.60;;;5.50;99.90;;;;;;6068514;23;20022;-68
2021/12/12 04:53:36;;;;;;;4.00;3.60;;;5.40;99.90;;;;;;6068022;23;20015;-66
2021/12/12 04:56:20;;;;;;;4.13;3.55;;;5.40;99.90;;;;;;6067116;23;20011;-71
2021/12/12 04:59:17;;;;;;;4.00;3.60;;;5.60;99.90;;;;;;6068226;23;20015;-68
2021/12/12 05:02:26;;;;;;;4.40;3.53;;;5.80;99.90;;;;;;6068164;23;20014;-67
2021/12/12 05:05:03;;;;;;;4.40;4.00;;;5.80;99.90;;;;;;5980490;24;20016;-69
2021/12/12 05:07:40;;;;;;;5.45;4.50;;;5.80;99.90;;;;;;5979950;24;20026;-67
2021/12/12 05:10:18;;;;;;;5.53;4.47;;;5.80;99.90;;;;;;6048715;23;20022;-71
2021/12/12 05:12:59;;;;;;;5.95;4.70;;;5.70;99.90;;;;;;6047487;23;20385;-71
2021/12/12 05:15:34;;;;;;;;;;;5.80;99.90;;;;;;6097907;23;20389;-80
2021/12/12 05:18:14;;;;;;;5.05;4.40;;;5.80;99.90;;;;;;6096987;23;19913;-80
2021/12/12 05:20:46;;;;;;;5.70;4.38;;;5.90;99.90;;;;;;6097316;23;20336;-79
2021/12/12 05:23:16;;;;;;;5.57;4.80;;;5.90;99.90;;;;;;6070936;23;20046;-78
2021/12/12 05:25:56;;;;;;;6.18;4.80;;;5.90;99.90;;;;;;6097183;23;20042;-69
2021/12/12 05:28:31;;;;;;;6.47;4.93;;;5.80;99.90;;;;;;6096467;23;20011;-72
2021/12/12 05:31:01;;;;;;;6.28;5.10;;;5.80;99.90;;;;;;6096919;23;20017;-74
2021/12/12 05:33:31;;;;;;;5.60;4.72;;;5.80;99.90;;;;;;6096553;23;20332;-67
2021/12/12 05:35:59;;;;;;;5.45;4.80;;;5.80;99.90;;;;;;6096343;23;20399;-72
2021/12/12 05:38:28;;;;;;;6.38;5.07;;;5.80;99.90;;;;;;6096340;23;20022;-70
2021/12/12 05:40:56;;;;;;;6.40;4.70;;;5.80;99.90;;;;;;6096644;23;20015;-73
2021/12/12 05:43:24;;;;;;;8.13;4.80;;;5.80;99.90;;;;;;6095910;23;20018;-73
2021/12/12 05:45:52;;;;;;;7.32;5.22;;;5.80;99.90;;;;;;6096794;23;20333;-70
2021/12/12 05:48:22;;;;;;;8.75;5.72;;;5.70;99.90;;;;;;6096476;23;20021;-68
2021/12/12 05:50:51;;;;;;;9.48;6.28;;;5.70;99.90;;;;;;6096726;23;20026;-68
2021/12/12 05:53:21;;;;;;;9.90;6.15;;;5.80;99.90;;;;;;6096076;23;20204;-68
2021/12/12 05:55:50;;;;;;;10.45;6.50;;;5.80;99.90;;;;;;6096619;23;20020;-74
2021/12/12 05:58:20;;;;;;;12.02;6.93;;;5.80;99.90;;;;;;6096297;23;20081;-71
2021/12/12 06:00:54;;;;;;;10.27;6.63;;;5.70;99.90;;;;;;6096654;23;20089;-70
2021/12/12 06:03:26;;;;;;;9.10;6.53;;;5.70;99.90;;;;;;6096077;23;20018;-77
2021/12/12 06:05:56;;;;;;;8.63;6.35;;;5.70;99.90;;;;;;6096760;23;20176;-80
2021/12/12 06:08:25;;;;;;;8.35;6.03;;;5.70;99.90;;;;;;6095984;23;20085;-69
2021/12/12 06:10:54;;;;;;;8.20;5.78;;;5.80;99.90;;;;;;6096009;23;20019;-67
2021/12/12 06:13:23;;;;;;;10.18;6.63;;;5.80;99.90;;;;;;6096433;23;20090;-75
2021/12/12 06:15:53;;;;;;;7.43;5.70;;;5.90;99.90;;;;;;6096512;23;20085;-72
2021/12/12 06:18:24;;;;;;;7.63;5.65;;;5.90;99.90;;;;;;6096145;23;20057;-70
2021/12/12 06:20:52;;;;;;;8.75;6.20;;;5.80;99.90;;;;;;6096409;23;20400;-68
2021/12/12 06:23:21;;;;;;;8.25;5.30;;;5.80;99.90;;;;;;6096015;23;20010;-68
2021/12/12 06:25:49;;;;;;;6.93;5.15;;;5.90;99.90;;;;;;6096196;23;20322;-76
2021/12/12 06:28:22;;;;;;;7.07;5.30;;;5.90;99.90;;;;;;6095976;23;20042;-77
2021/12/12 06:30:50;;;;;;;9.48;5.43;;;5.90;99.90;;;;;;6096516;23;20022;-75
2021/12/12 06:33:18;;;;;;;7.25;4.95;;;5.90;99.90;;;;;;6095742;23;20062;-65
2021/12/12 06:35:48;;;;;;;7.85;5.75;;;5.80;99.90;;;;;;6096056;23;20097;-72
2021/12/12 06:38:17;;;;;;;6.65;4.95;;;5.90;99.90;;;;;;6095498;23;20090;-70
2021/12/12 06:40:46;;;;;;;9.13;5.43;;;5.80;99.90;;;;;;6096771;23;20015;-76
2021/12/12 06:43:16;;;;;;;7.18;5.32;;;5.70;99.90;;;;;;6095877;23;20021;-73
2021/12/12 06:45:44;;;;;;;7.03;5.55;;;5.80;99.90;;;;;;6070427;23;20029;-77
2021/12/12 06:48:13;;;;;;;7.28;5.35;;;5.80;99.90;;;;;;6096170;23;20033;-74
2021/12/12 06:50:43;;;;;;;7.88;6.35;;;5.80;99.90;;;;;;6095919;23;20038;-74
2021/12/12 06:53:14;;;;;;;7.38;5.80;;;5.90;99.90;;;;;;6095792;23;20010;-80
2021/12/12 06:55:45;;;;;;;6.45;5.60;;;5.80;99.90;;;;;;6097043;23;20475;-72
2021/12/12 06:58:16;;;;;;;6.45;5.07;;;5.70;99.90;;;;;;6096124;23;20086;-80
2021/12/12 07:00:46;;;;;;;9.32;5.93;;;5.70;99.90;;;;;;6096566;23;20018;-73
2021/12/12 07:03:17;;;;;;;8.95;6.00;;;5.80;99.90;;;;;;6095984;23;20018;-72
2021/12/12 07:05:45;;;;;;;11.20;6.57;;;5.80;99.90;;;;;;6095922;23;20019;-68
2021/12/12 07:08:15;;;;;;;11.07;6.70;;;5.80;99.90;;;;;;6095133;23;20085;-68
2021/12/12 07:10:43;;;;;;;8.05;5.38;;;5.90;99.90;;;;;;6095586;23;20018;-77
2021/12/12 07:13:11;;;;;;;7.80;4.90;;;5.80;99.90;;;;;;6095656;23;20015;-72
2021/12/12 07:15:43;;;;;;;4.85;4.07;;;5.90;99.90;;;;;;6096241;23;20018;-67
2021/12/12 07:18:14;;;;;;;6.47;4.40;;;5.70;99.90;;;;;;6095846;23;20391;-73
2021/12/12 07:20:41;;;;;;;;;;;5.50;99.90;;;;;;6071445;23;20340;-69
2021/12/12 07:23:11;;;;;;;3.90;3.60;;;5.80;99.90;;;;;;6095229;23;19983;-71
2021/12/12 07:25:41;;;;;;;4.32;3.92;;;5.80;99.90;;;;;;6096208;23;20028;-65
2021/12/12 07:28:08;;;;;;;4.27;3.87;;;5.70;99.90;;;;;;6095509;23;20017;-66
2021/12/12 07:30:36;;;;;;;4.80;4.28;;;5.90;99.90;;;;;;6095276;23;20245;-79
2021/12/12 07:33:05;;;;;;;6.40;4.57;;;5.90;99.90;;;;;;6070713;23;20294;-74
2021/12/12 07:35:35;;;;;;;6.22;4.28;;;6.00;99.90;;;;;;6095483;23;20449;-66
2021/12/12 07:38:06;;;;;;;6.10;4.50;;;5.70;99.90;;;;;;6095168;23;20010;-76
2021/12/12 07:40:34;;;;;;;5.75;4.53;;;5.70;99.90;;;;;;6096038;23;20328;-73
2021/12/12 07:43:03;;;;;;;6.03;4.78;;;5.80;99.90;;;;;;6095666;23;20014;-77
2021/12/12 07:45:32;;;;;;;5.07;4.57;;;6.00;99.90;;;;;;6095324;23;20045;-68
2021/12/12 07:48:00;;;;;;;5.32;4.47;;;6.10;99.90;;;;;;6095619;23;20011;-75
2021/12/12 07:50:28;;;;;;;6.60;4.32;;;6.10;99.90;;;;;;6094970;23;20045;-72
2021/12/12 07:52:56;;;;;;;5.80;4.50;;;6.20;99.90;;;;;;6095347;23;20038;-72
2021/12/12 07:55:24;;;;;;;4.68;4.13;;;6.10;99.90;;;;;;6095304;23;20085;-73
2021/12/12 07:57:52;;;;;;;5.38;4.43;;;6.00;99.90;;;;;;6095007;23;20042;-75
2021/12/12 08:00:23;;;;;;;4.97;4.47;;;6.00;99.90;;;;;;6069902;23;20074;-73
2021/12/12 08:02:52;;;;;;;4.55;4.15;;;5.90;99.90;;;;;;6095303;23;20014;-68
2021/12/12 08:05:21;;;;;;;5.03;4.18;;;5.70;99.90;;;;;;6069545;23;20018;-68
2021/12/12 08:07:49;;;;;;;4.30;3.90;;;5.50;99.90;;;;;;6094744;23;20019;-70
2021/12/12 08:10:17;;;;;;;4.90;3.97;;;5.50;99.90;;;;;;6094875;23;20325;-69
2021/12/12 08:12:45;;;;;;;4.60;3.90;;;5.40;99.90;;;;;;6095024;23;20320;-76
2021/12/12 08:15:15;;;;;;;4.50;4.10;;;5.40;99.90;;;;;;6094975;23;20036;-69
2021/12/12 08:17:43;;;;;;;4.93;4.43;;;5.40;99.90;;;;;;6095271;23;20247;-73
2021/12/12 08:20:13;;;;;;;6.63;4.03;;;5.40;99.90;;;;;;6094942;23;20038;-70
2021/12/12 08:22:42;;;;;;;4.38;3.80;;;5.30;99.90;;;;;;6094685;23;20332;-69
2021/12/12 08:25:12;;;;;;;11.07;7.03;;;5.70;99.90;;;;;;6095095;23;20093;-68
2021/12/12 08:27:41;;;;;;;23.70;14.40;;;5.80;99.90;;;;;;6069658;23;20049;-78
2021/12/12 08:30:10;;;;;;;9.57;6.63;;;5.90;99.90;;;;;;6094758;23;20046;-78
2021/12/12 08:32:38;;;;;;;23.60;14.40;;;5.70;99.90;;;;;;6094851;23;20034;-74
2021/12/12 08:35:11;;;;;;;46.78;26.52;;;5.80;99.90;;;;;;6046115;23;20332;-68
2021/12/12 08:37:40;;;;;;;18.90;12.00;;;6.00;99.90;;;;;;6094982;23;20081;-67
2021/12/12 08:40:10;;;;;;;9.55;7.15;;;6.20;99.90;;;;;;6095099;23;20294;-71
2021/12/12 08:42:38;;;;;;;7.10;5.20;;;5.80;99.90;;;;;;6094802;23;20051;-69
2021/12/12 08:45:08;;;;;;;10.40;6.65;;;5.60;99.90;;;;;;6094331;23;20090;-70
2021/12/12 08:47:36;;;;;;;10.02;7.18;;;5.70;99.90;;;;;;6095018;23;20026;-73
2021/12/12 08:50:08;;;;;;;9.65;7.03;;;5.60;99.90;;;;;;6095061;23;20011;-67
2021/12/12 08:52:39;;;;;;;5.20;4.25;;;5.40;99.90;;;;;;6094352;23;20094;-73
2021/12/12 08:55:15;;;;;;;4.38;3.85;;;5.20;99.90;;;;;;6095824;23;20015;-71
2021/12/12 08:57:52;;;;;;;4.50;4.10;;;5.20;99.90;;;;;;6095023;23;20098;-76
2021/12/12 09:00:37;;;;;;;4.47;4.07;;;5.10;99.90;;;;;;6095195;23;20037;-71
2021/12/12 09:03:08;;;;;;;4.68;4.28;;;5.10;99.90;;;;;;6094512;23;20046;-68
2021/12/12 09:05:41;;;;;;;4.72;4.22;;;5.10;99.90;;;;;;6094736;23;20038;-74
2021/12/12 09:08:23;;;;;;;4.95;4.22;;;5.10;99.90;;;;;;6093145;23;20018;-64
2021/12/12 09:11:01;;;;;;;4.88;4.30;;;5.00;99.90;;;;;;6092474;23;20026;-64
2021/12/12 09:14:03;;;;;;;4.55;4.10;;;5.00;99.90;;;;;;6092841;23;20081;-67
2021/12/12 09:16:39;;;;;;;4.43;4.00;;;5.00;99.90;;;;;;6092634;23;20393;-69
2021/12/12 09:19:15;;;;;;;4.93;4.43;;;5.00;99.90;;;;;;6092730;23;20032;-67
2021/12/12 09:21:51;;;;;;;4.88;4.30;;;5.10;99.90;;;;;;6092467;23;20389;-69
2021/12/12 09:24:26;;;;;;;4.40;3.92;;;5.00;99.90;;;;;;6092983;23;20014;-68
2021/12/12 09:27:00;;;;;;;5.78;4.38;;;5.10;99.90;;;;;;6092292;23;20024;-70
2021/12/12 09:29:35;;;;;;;4.32;3.92;;;5.00;99.90;;;;;;6083072;23;20364;-70
2021/12/12 09:32:21;;;;;;;4.82;4.32;;;4.90;99.90;;;;;;6086103;23;20407;-71
2021/12/12 09:35:22;;;;;;;5.93;4.35;;;5.00;99.90;;;;;;6094085;23;20313;-75
2021/12/12 09:37:58;;;;;;;5.25;4.25;;;4.90;99.90;;;;;;6089773;23;20318;-69
2021/12/12 09:40:55;;;;;;;4.50;4.10;;;4.80;99.90;;;;;;6068953;23;20026;-67
2021/12/12 09:43:59;;;;;;;34.92;16.30;;;4.80;99.90;;;;;;5988258;23;20098;-68
2021/12/12 09:46:44;;;;;;;8.23;6.38;;;4.90;99.90;;;;;;6093556;23;20348;-67
2021/12/12 09:52:16;;;;;;;6.43;4.43;;;4.80;99.90;;;;;;6094239;23;20014;-68
2021/12/12 09:55:10;;;;;;;4.93;3.95;;;4.60;99.90;;;;;;6065561;23;20010;-68
2021/12/12 09:57:44;;;;;;;6.30;4.75;;;4.70;99.90;;;;;;6094411;23;20214;-64
2021/12/12 10:00:28;;;;;;;4.55;4.15;;;4.70;99.90;;;;;;6093416;23;20023;-66
2021/12/12 10:03:42;;;;;;;5.13;4.35;;;4.80;99.90;;;;;;6093787;23;20018;-67
2021/12/12 10:06:18;;;;;;;5.13;4.60;;;4.70;99.90;;;;;;6048511;23;20103;-68
2021/12/12 10:09:06;;;;;;;4.30;3.90;;;4.90;99.90;;;;;;6092758;23;20018;-66
2021/12/12 10:11:57;;;;;;;5.90;4.22;;;4.70;99.90;;;;;;6091368;23;20022;-67
2021/12/12 10:14:45;;;;;;;4.90;4.40;;;4.70;99.90;;;;;;6084392;23;20023;-65
2021/12/12 10:17:22;;;;;;;5.47;4.38;;;4.70;99.90;;;;;;6091770;23;20126;-70
2021/12/12 10:20:05;;;;;;;4.70;4.20;;;4.80;99.90;;;;;;6092157;23;20086;-65
2021/12/12 10:22:39;;;;;;;5.00;3.80;;;4.90;99.90;;;;;;6067839;23;20413;-67
2021/12/12 10:25:18;;;;;;;4.00;3.70;;;4.70;99.90;;;;;;6092539;23;20015;-65
2021/12/12 10:28:15;;;;;;;4.93;4.20;;;4.50;99.90;;;;;;6092690;23;20085;-72
2021/12/12 10:31:08;;;;;;;4.50;4.10;;;4.50;99.90;;;;;;6064679;23;20046;-72
2021/12/12 10:33:48;;;;;;;5.40;4.53;;;4.70;99.90;;;;;;6054889;23;20018;-68
2021/12/12 10:36:29;;;;;;;5.32;4.35;;;4.80;99.90;;;;;;6095645;23;20398;-76
2021/12/12 10:39:09;;;;;;;4.18;3.78;;;5.20;99.90;;;;;;6095474;23;20066;-65
2021/12/12 10:41:39;;;;;;;4.70;4.20;;;4.80;99.90;;;;;;6094908;23;20101;-68
2021/12/12 10:44:18;;;;;;;4.20;3.80;;;4.50;99.90;;;;;;6094673;23;20014;-76
2021/12/12 10:47:20;;;;;;;3.90;3.60;;;4.70;99.90;;;;;;6095599;23;20018;-72
2021/12/12 10:50:10;;;;;;;4.38;3.97;;;4.60;99.90;;;;;;6094104;23;20069;-72
2021/12/12 10:52:56;;;;;;;4.30;3.90;;;4.60;99.90;;;;;;6093670;23;20015;-68
2021/12/12 10:55:41;;;;;;;4.78;4.28;;;4.60;99.90;;;;;;6094925;23;20085;-69
2021/12/12 10:58:28;;;;;;;4.32;3.92;;;5.10;99.90;;;;;;6092038;23;20022;-69
2021/12/12 11:01:09;;;;;;;4.20;3.80;;;5.00;99.90;;;;;;6092868;23;20089;-70
2021/12/12 11:04:08;;;;;;;4.45;4.05;;;4.70;99.90;;;;;;6080595;23;20034;-68
2021/12/12 11:06:58;;;;;;;4.55;4.10;;;4.70;99.90;;;;;;6091898;23;20573;-75
2021/12/12 11:09:34;;;;;;;4.80;4.25;;;4.80;99.90;;;;;;6093068;23;20358;-72
2021/12/12 11:12:45;;;;;;;4.80;4.40;;;4.80;99.90;;;;;;6094119;23;20052;-68
2021/12/12 11:15:14;;;;;;;5.53;4.50;;;4.80;99.90;;;;;;6069457;23;20022;-71
2021/12/12 11:18:05;;;;;;;6.55;4.90;;;4.90;99.90;;;;;;6070034;23;20028;-68
2021/12/12 11:20:38;;;;;;;;;;;5.10;99.90;;;;;;6076103;23;20105;-75
2021/12/12 11:23:15;;;;;;;5.90;4.35;;;5.00;99.90;;;;;;6095228;23;20298;-75
2021/12/12 11:25:54;;;;;;;5.07;4.25;;;4.80;99.90;;;;;;6096206;23;20025;-76
2021/12/12 11:28:40;;;;;;;5.45;4.50;;;4.90;99.90;;;;;;6095510;23;20370;-73
2021/12/12 11:31:13;;;;;;;5.68;4.70;;;4.80;99.90;;;;;;6094640;23;20115;-73
2021/12/12 11:33:43;;;;;;;6.63;5.38;;;4.80;99.90;;;;;;6093845;23;20316;-68
2021/12/12 11:36:14;;;;;;;6.70;5.15;;;5.00;99.90;;;;;;6094696;23;20041;-69
2021/12/12 11:38:48;;;;;;;7.03;5.55;;;4.90;99.90;;;;;;6094771;23;20094;-68
2021/12/12 11:41:32;;;;;;;6.68;5.80;;;5.00;99.90;;;;;;6094614;23;20019;-66
2021/12/12 11:44:18;;;;;;;7.25;4.95;;;5.30;99.90;;;;;;6095077;23;20380;-72
2021/12/12 11:46:52;;;;;;;6.57;5.20;;;5.40;99.90;;;;;;6095465;23;20316;-69
2021/12/12 11:49:24;;;;;;;6.45;4.82;;;5.40;99.90;;;;;;6095506;23;20306;-73
2021/12/12 11:51:59;;;;;;;5.20;4.70;;;5.50;99.90;;;;;;6094816;23;20097;-68
2021/12/12 11:54:49;;;;;;;6.05;4.53;;;5.50;99.90;;;;;;6095774;23;20014;-70
2021/12/12 11:57:24;;;;;;;5.60;4.68;;;5.60;99.90;;;;;;6095010;23;20014;-68
2021/12/12 11:59:59;;;;;;;6.38;5.05;;;5.60;99.90;;;;;;6095385;23;20018;-68
2021/12/12 12:02:33;;;;;;;10.20;6.85;;;5.40;99.90;;;;;;6094816;23;20081;-68
2021/12/12 12:05:29;;;;;;;7.97;5.50;;;5.30;99.90;;;;;;6095363;23;20019;-74
2021/12/12 12:08:07;;;;;;;6.55;4.95;;;5.30;99.90;;;;;;6041366;23;20314;-68
2021/12/12 12:10:37;;;;;;;5.93;4.43;;;5.30;99.90;;;;;;6094465;23;20089;-69
2021/12/12 12:13:05;;;;;;;6.28;4.40;;;5.00;99.90;;;;;;6094126;23;20382;-75
2021/12/12 12:16:03;;;;;;;6.57;4.80;;;5.10;99.90;;;;;;6094488;23;20025;-73
2021/12/12 12:18:34;;;;;;;5.65;4.97;;;5.50;99.90;;;;;;6093756;23;20014;-73
2021/12/12 12:21:37;;;;;;;6.55;5.13;;;4.90;99.90;;;;;;6095099;23;20523;-72
2021/12/12 12:24:28;;;;;;;7.13;4.47;;;4.70;99.90;;;;;;6093366;23;20066;-68
2021/12/12 12:27:06;;;;;;;4.78;4.32;;;4.50;99.90;;;;;;6068597;23;20022;-71
2021/12/12 12:29:37;;;;;;;6.28;4.65;;;4.40;99.90;;;;;;6062368;23;20022;-75
2021/12/12 12:32:34;;;;;;;4.82;4.28;;;4.40;99.90;;;;;;6047119;23;20022;-74
2021/12/12 12:35:38;;;;;;;4.80;4.40;;;4.40;99.90;;;;;;6095228;23;20022;-73
2021/12/12 12:38:45;;;;;;;5.35;4.45;;;4.80;99.90;;;;;;6046523;23;20019;-81
2021/12/12 12:41:53;;;;;;;6.47;4.70;;;4.40;99.90;;;;;;6046646;23;20022;-71
2021/12/12 12:44:59;;;;;;;5.53;4.63;;;4.50;99.90;;;;;;6094240;23;20090;-75
2021/12/12 12:48:00;;;;;;;4.82;4.32;;;4.60;99.90;;;;;;6094145;23;20018;-71
2021/12/12 12:50:31;;;;;;;5.60;5.00;;;4.20;99.90;;;;;;6094666;23;20045;-67
2021/12/12 12:53:16;;;;;;;5.18;4.68;;;4.00;99.90;;;;;;6069830;23;20021;-73
2021/12/12 12:56:21;;;;;;;5.22;4.72;;;4.00;99.90;;;;;;6094055;23;20078;-72
2021/12/12 12:59:26;;;;;;;6.97;4.85;;;4.00;99.90;;;;;;6092802;23;20020;-69
2021/12/12 13:02:18;;;;;;;5.40;4.35;;;4.00;99.90;;;;;;6093470;23;20085;-66
2021/12/12 13:05:07;;;;;;;5.25;4.75;;;4.00;99.90;;;;;;6093077;23;20010;-68
2021/12/12 13:07:41;;;;;;;5.25;4.75;;;3.90;99.90;;;;;;6094746;23;20781;-68
2021/12/12 13:10:15;;;;;;;8.45;4.80;;;4.00;99.90;;;;;;6096861;23;20015;-70
2021/12/12 13:13:22;;;;;;;6.97;4.55;;;4.00;99.90;;;;;;6047568;23;20032;-75
2021/12/12 13:16:00;;;;;;;5.20;4.70;;;4.00;99.90;;;;;;6069943;23;20028;-72
2021/12/12 13:18:52;;;;;;;5.88;4.85;;;4.10;99.90;;;;;;6096310;23;20014;-68
2021/12/12 13:21:54;;;;;;;5.18;4.60;;;4.20;99.90;;;;;;6071601;23;20037;-69
2021/12/12 13:24:41;;;;;;;6.30;5.07;;;4.10;99.90;;;;;;6096083;23;20046;-72
2021/12/12 13:27:34;;;;;;;6.78;5.10;;;4.20;99.90;;;;;;6096321;23;20014;-70
2021/12/12 13:30:15;;;;;;;6.18;4.68;;;4.20;99.90;;;;;;6071119;23;20348;-71
2021/12/12 13:32:52;;;;;;;6.32;4.80;;;4.10;99.90;;;;;;6095588;23;20085;-70
2021/12/12 13:35:30;;;;;;;7.13;4.95;;;4.10;99.90;;;;;;6095302;23;20015;-70
2021/12/12 13:38:06;;;;;;;5.80;5.20;;;4.20;99.90;;;;;;6095748;23;20081;-73
2021/12/12 13:40:43;;;;;;;6.30;4.97;;;4.30;99.90;;;;;;6070960;23;20045;-72
2021/12/12 13:43:30;;;;;;;7.30;4.95;;;4.30;99.90;;;;;;6095894;23;20034;-71
2021/12/12 13:46:25;;;;;;;5.68;4.85;;;4.40;99.90;;;;;;6095725;23;20017;-70
2021/12/12 13:49:11;;;;;;;8.90;4.97;;;4.50;99.90;;;;;;6096273;23;20022;-70
2021/12/12 13:51:48;;;;;;;5.78;5.22;;;4.60;99.90;;;;;;6070647;23;20017;-70
2021/12/12 13:54:24;;;;;;;6.18;5.20;;;5.00;99.90;;;;;;6096094;23;20025;-71
2021/12/12 13:57:16;;;;;;;5.88;5.28;;;5.00;99.90;;;;;;6096116;23;20033;-69
2021/12/12 14:00:06;;;;;;;7.85;5.60;;;5.10;99.90;;;;;;6096341;23;20022;-68
2021/12/12 14:02:35;;;;;;;9.60;4.93;;;5.20;99.90;;;;;;6096088;23;20010;-70
2021/12/12 14:05:20;;;;;;;6.32;5.35;;;5.20;99.90;;;;;;6070472;23;20344;-70